sensor_id;sensor_type;location;lat;lon;timestamp;temperature;humidity
563;DHT22;266;49.514;8.294;2023-05-29T00:00:41;16.10;99.90
563;DHT22;266;49.514;8.294;2023-05-29T00:03:09;16.10;99.90
563;DHT22;266;49.514;8.294;2023-05-29T00:05:38;16.00;99.90
563;DHT22;266;49.514;8.294;2023-05-29T00:08:06;16.00;99.90
563;DHT22;266;49.514;8.294;2023-05-29T00:10:35;16.00;99.90
563;DHT22;266;49.514;8.294;2023-05-29T00:13:04;15.90;99.90
563;DHT22;266;49.514;8.294;2023-05-29T00:15:34;15.90;99.90
563;DHT22;266;49.514;8.294;2023-05-29T00:18:02;15.90;99.90
563;DHT22;266;49.514;8.294;2023-05-29T00:20:30;15.80;99.90
563;DHT22;266;49.514;8.294;2023-05-29T00:23:01;15.70;99.90
563;DHT22;266;49.514;8.294;2023-05-29T00:25:31;15.70;99.90
563;DHT22;266;49.514;8.294;2023-05-29T00:28:00;15.70;99.90
563;DHT22;266;49.514;8.294;2023-05-29T00:30:28;15.60;99.90
563;DHT22;266;49.514;8.294;2023-05-29T00:32:56;15.60;99.90
563;DHT22;266;49.514;8.294;2023-05-29T00:35:24;15.50;99.90
563;DHT22;266;49.514;8.294;2023-05-29T00:37:52;15.50;99.90
563;DHT22;266;49.514;8.294;2023-05-29T00:40:20;15.40;99.90
563;DHT22;266;49.514;8.294;2023-05-29T00:42:48;15.40;99.90
563;DHT22;266;49.514;8.294;2023-05-29T00:45:17;15.30;99.90
563;DHT22;266;49.514;8.294;2023-05-29T00:47:46;15.30;99.90
563;DHT22;266;49.514;8.294;2023-05-29T00:50:15;15.20;99.90
563;DHT22;266;49.514;8.294;2023-05-29T00:52:44;15.20;99.90
563;DHT22;266;49.514;8.294;2023-05-29T00:55:13;15.20;99.90
563;DHT22;266;49.514;8.294;2023-05-29T00:57:42;15.10;99.90
563;DHT22;266;49.514;8.294;2023-05-29T01:00:12;15.10;99.90
563;DHT22;266;49.514;8.294;2023-05-29T01:02:43;15.00;99.90
563;DHT22;266;49.514;8.294;2023-05-29T01:05:12;15.00;99.90
563;DHT22;266;49.514;8.294;2023-05-29T01:07:42;14.90;99.90
563;DHT22;266;49.514;8.294;2023-05-29T01:10:10;14.90;99.90
563;DHT22;266;49.514;8.294;2023-05-29T01:12:43;14.80;99.90
563;DHT22;266;49.514;8.294;2023-05-29T01:15:28;14.80;99.90
563;DHT22;266;49.514;8.294;2023-05-29T01:18:08;14.80;99.90
563;DHT22;266;49.514;8.294;2023-05-29T01:20:42;14.70;99.90
563;DHT22;266;49.514;8.294;2023-05-29T01:26:12;14.70;99.90
563;DHT22;266;49.514;8.294;2023-05-29T01:28:48;14.60;99.90
563;DHT22;266;49.514;8.294;2023-05-29T01:31:19;14.60;99.90
563;DHT22;266;49.514;8.294;2023-05-29T01:33:52;14.60;99.90
563;DHT22;266;49.514;8.294;2023-05-29T01:36:20;14.60;99.90
563;DHT22;266;49.514;8.294;2023-05-29T01:38:48;14.50;99.90
563;DHT22;266;49.514;8.294;2023-05-29T01:41:18;14.50;99.90
563;DHT22;266;49.514;8.294;2023-05-29T01:43:49;14.50;99.90
563;DHT22;266;49.514;8.294;2023-05-29T01:46:18;14.50;99.90
563;DHT22;266;49.514;8.294;2023-05-29T01:48:47;14.40;99.90
563;DHT22;266;49.514;8.294;2023-05-29T01:51:15;14.40;99.90
563;DHT22;266;49.514;8.294;2023-05-29T01:53:43;14.40;99.90
563;DHT22;266;49.514;8.294;2023-05-29T01:56:12;14.40;99.90
563;DHT22;266;49.514;8.294;2023-05-29T01:58:40;14.40;99.90
563;DHT22;266;49.514;8.294;2023-05-29T02:01:10;14.30;99.90
563;DHT22;266;49.514;8.294;2023-05-29T02:03:38;14.30;99.90
563;DHT22;266;49.514;8.294;2023-05-29T02:06:06;14.30;99.90
563;DHT22;266;49.514;8.294;2023-05-29T02:08:34;14.30;99.90
563;DHT22;266;49.514;8.294;2023-05-29T02:11:02;14.30;99.90
563;DHT22;266;49.514;8.294;2023-05-29T02:13:30;14.20;99.90
563;DHT22;266;49.514;8.294;2023-05-29T02:15:59;14.20;99.90
563;DHT22;266;49.514;8.294;2023-05-29T02:18:28;14.20;99.90
563;DHT22;266;49.514;8.294;2023-05-29T02:20:57;14.20;99.90
563;DHT22;266;49.514;8.294;2023-05-29T02:23:25;14.20;99.90
563;DHT22;266;49.514;8.294;2023-05-29T02:25:53;14.20;99.90
563;DHT22;266;49.514;8.294;2023-05-29T02:28:21;14.10;99.90
563;DHT22;266;49.514;8.294;2023-05-29T02:30:50;14.10;99.90
563;DHT22;266;49.514;8.294;2023-05-29T02:33:18;14.10;99.90
563;DHT22;266;49.514;8.294;2023-05-29T02:35:47;14.10;99.90
563;DHT22;266;49.514;8.294;2023-05-29T02:38:15;14.10;99.90
563;DHT22;266;49.514;8.294;2023-05-29T02:40:43;14.00;99.90
563;DHT22;266;49.514;8.294;2023-05-29T02:43:13;14.00;99.90
563;DHT22;266;49.514;8.294;2023-05-29T02:45:41;14.00;99.90
563;DHT22;266;49.514;8.294;2023-05-29T02:48:09;14.00;99.90
563;DHT22;266;49.514;8.294;2023-05-29T02:50:38;14.00;99.90
563;DHT22;266;49.514;8.294;2023-05-29T02:53:07;14.00;99.90
563;DHT22;266;49.514;8.294;2023-05-29T02:55:35;14.00;99.90
563;DHT22;266;49.514;8.294;2023-05-29T02:58:03;14.00;99.90
563;DHT22;266;49.514;8.294;2023-05-29T03:00:31;14.00;99.90
563;DHT22;266;49.514;8.294;2023-05-29T03:02:59;14.00;99.90
563;DHT22;266;49.514;8.294;2023-05-29T03:05:27;14.00;99.90
563;DHT22;266;49.514;8.294;2023-05-29T03:07:55;14.00;99.90
563;DHT22;266;49.514;8.294;2023-05-29T03:10:24;14.00;99.90
563;DHT22;266;49.514;8.294;2023-05-29T03:12:52;13.90;99.90
563;DHT22;266;49.514;8.294;2023-05-29T03:15:20;13.90;99.90
563;DHT22;266;49.514;8.294;2023-05-29T03:17:48;13.90;99.90
563;DHT22;266;49.514;8.294;2023-05-29T03:20:16;13.90;99.90
563;DHT22;266;49.514;8.294;2023-05-29T03:22:45;13.80;99.90
563;DHT22;266;49.514;8.294;2023-05-29T03:25:12;13.80;99.90
563;DHT22;266;49.514;8.294;2023-05-29T03:27:42;13.80;99.90
563;DHT22;266;49.514;8.294;2023-05-29T03:30:10;13.80;99.90
563;DHT22;266;49.514;8.294;2023-05-29T03:32:38;13.80;99.90
563;DHT22;266;49.514;8.294;2023-05-29T03:35:07;13.80;99.90
563;DHT22;266;49.514;8.294;2023-05-29T03:37:35;13.80;99.90
563;DHT22;266;49.514;8.294;2023-05-29T03:40:04;13.80;99.90
563;DHT22;266;49.514;8.294;2023-05-29T03:42:33;13.80;99.90
563;DHT22;266;49.514;8.294;2023-05-29T03:45:02;13.80;99.90
563;DHT22;266;49.514;8.294;2023-05-29T03:47:31;13.80;99.90
563;DHT22;266;49.514;8.294;2023-05-29T03:49:59;13.80;99.90
563;DHT22;266;49.514;8.294;2023-05-29T03:52:26;13.80;99.90
563;DHT22;266;49.514;8.294;2023-05-29T03:54:54;13.80;99.90
563;DHT22;266;49.514;8.294;2023-05-29T03:57:22;13.70;99.90
563;DHT22;266;49.514;8.294;2023-05-29T03:59:50;13.80;99.90
563;DHT22;266;49.514;8.294;2023-05-29T04:02:20;13.80;99.90
563;DHT22;266;49.514;8.294;2023-05-29T04:04:48;13.80;99.90
563;DHT22;266;49.514;8.294;2023-05-29T04:07:16;13.80;99.90
563;DHT22;266;49.514;8.294;2023-05-29T04:09:45;13.80;99.90
563;DHT22;266;49.514;8.294;2023-05-29T04:12:13;13.80;99.90
563;DHT22;266;49.514;8.294;2023-05-29T04:14:42;13.80;99.90
563;DHT22;266;49.514;8.294;2023-05-29T04:17:10;13.80;99.90
563;DHT22;266;49.514;8.294;2023-05-29T04:19:39;13.80;99.90
563;DHT22;266;49.514;8.294;2023-05-29T04:22:07;13.80;99.90
563;DHT22;266;49.514;8.294;2023-05-29T04:24:35;13.80;99.90
563;DHT22;266;49.514;8.294;2023-05-29T04:27:03;13.90;99.90
563;DHT22;266;49.514;8.294;2023-05-29T04:29:32;13.90;99.90
563;DHT22;266;49.514;8.294;2023-05-29T04:32:00;13.90;99.90
563;DHT22;266;49.514;8.294;2023-05-29T04:34:30;13.90;99.90
563;DHT22;266;49.514;8.294;2023-05-29T04:36:59;13.90;99.90
563;DHT22;266;49.514;8.294;2023-05-29T04:39:27;14.00;99.90
563;DHT22;266;49.514;8.294;2023-05-29T04:41:55;14.10;99.90
563;DHT22;266;49.514;8.294;2023-05-29T04:44:25;14.10;99.90
563;DHT22;266;49.514;8.294;2023-05-29T04:46:53;14.10;99.90
563;DHT22;266;49.514;8.294;2023-05-29T04:49:24;14.10;99.90
563;DHT22;266;49.514;8.294;2023-05-29T04:51:54;14.10;99.90
563;DHT22;266;49.514;8.294;2023-05-29T04:54:23;14.20;99.90
563;DHT22;266;49.514;8.294;2023-05-29T04:56:51;14.20;99.90
563;DHT22;266;49.514;8.294;2023-05-29T04:59:19;14.30;99.90
563;DHT22;266;49.514;8.294;2023-05-29T05:01:47;14.30;99.90
563;DHT22;266;49.514;8.294;2023-05-29T05:04:15;14.30;99.90
563;DHT22;266;49.514;8.294;2023-05-29T05:06:43;14.40;99.90
563;DHT22;266;49.514;8.294;2023-05-29T05:09:11;14.40;99.90
563;DHT22;266;49.514;8.294;2023-05-29T05:11:41;14.50;99.90
563;DHT22;266;49.514;8.294;2023-05-29T05:14:09;14.50;99.90
563;DHT22;266;49.514;8.294;2023-05-29T05:16:37;14.50;99.90
563;DHT22;266;49.514;8.294;2023-05-29T05:19:05;14.60;99.90
563;DHT22;266;49.514;8.294;2023-05-29T05:21:33;14.60;99.90
563;DHT22;266;49.514;8.294;2023-05-29T05:24:02;14.70;99.90
563;DHT22;266;49.514;8.294;2023-05-29T05:26:30;14.70;99.90
563;DHT22;266;49.514;8.294;2023-05-29T05:29:00;14.80;99.90
563;DHT22;266;49.514;8.294;2023-05-29T05:31:28;14.90;99.90
563;DHT22;266;49.514;8.294;2023-05-29T05:33:56;14.90;99.90
563;DHT22;266;49.514;8.294;2023-05-29T05:36:24;15.00;99.90
563;DHT22;266;49.514;8.294;2023-05-29T05:38:52;15.00;99.90
563;DHT22;266;49.514;8.294;2023-05-29T05:41:20;15.10;99.90
563;DHT22;266;49.514;8.294;2023-05-29T05:43:49;15.20;99.90
563;DHT22;266;49.514;8.294;2023-05-29T05:46:18;15.20;99.90
563;DHT22;266;49.514;8.294;2023-05-29T05:48:46;15.30;99.90
563;DHT22;266;49.514;8.294;2023-05-29T05:51:14;15.40;99.90
563;DHT22;266;49.514;8.294;2023-05-29T05:53:42;15.50;99.90
563;DHT22;266;49.514;8.294;2023-05-29T05:56:10;15.50;99.90
563;DHT22;266;49.514;8.294;2023-05-29T05:58:39;15.60;99.90
563;DHT22;266;49.514;8.294;2023-05-29T06:01:08;15.70;99.90
563;DHT22;266;49.514;8.294;2023-05-29T06:03:38;15.70;99.90
563;DHT22;266;49.514;8.294;2023-05-29T06:06:07;15.80;99.90
563;DHT22;266;49.514;8.294;2023-05-29T06:08:36;15.80;99.90
563;DHT22;266;49.514;8.294;2023-05-29T06:11:05;15.90;99.90
563;DHT22;266;49.514;8.294;2023-05-29T06:13:33;15.90;99.90
563;DHT22;266;49.514;8.294;2023-05-29T06:16:01;16.00;99.90
563;DHT22;266;49.514;8.294;2023-05-29T06:18:29;16.00;99.90
563;DHT22;266;49.514;8.294;2023-05-29T06:20:58;16.00;99.90
563;DHT22;266;49.514;8.294;2023-05-29T06:23:27;16.20;99.90
563;DHT22;266;49.514;8.294;2023-05-29T06:25:55;16.30;99.90
563;DHT22;266;49.514;8.294;2023-05-29T06:28:23;16.30;99.90
563;DHT22;266;49.514;8.294;2023-05-29T06:30:51;16.30;99.90
563;DHT22;266;49.514;8.294;2023-05-29T06:33:20;16.40;99.90
563;DHT22;266;49.514;8.294;2023-05-29T06:35:48;16.50;99.90
563;DHT22;266;49.514;8.294;2023-05-29T06:38:18;16.60;99.90
563;DHT22;266;49.514;8.294;2023-05-29T06:40:46;16.70;99.90
563;DHT22;266;49.514;8.294;2023-05-29T06:43:14;16.80;99.90
563;DHT22;266;49.514;8.294;2023-05-29T06:45:42;16.80;99.90
563;DHT22;266;49.514;8.294;2023-05-29T06:48:11;16.80;99.90
563;DHT22;266;49.514;8.294;2023-05-29T06:50:39;16.90;99.90
563;DHT22;266;49.514;8.294;2023-05-29T06:53:07;17.00;99.90
563;DHT22;266;49.514;8.294;2023-05-29T06:55:37;17.10;99.90
563;DHT22;266;49.514;8.294;2023-05-29T06:58:10;17.20;99.90
563;DHT22;266;49.514;8.294;2023-05-29T07:00:38;17.20;99.90
563;DHT22;266;49.514;8.294;2023-05-29T07:03:07;17.30;99.90
563;DHT22;266;49.514;8.294;2023-05-29T07:05:35;17.40;99.90
563;DHT22;266;49.514;8.294;2023-05-29T07:08:03;17.40;99.90
563;DHT22;266;49.514;8.294;2023-05-29T07:10:31;17.50;99.90
563;DHT22;266;49.514;8.294;2023-05-29T07:13:00;17.60;99.90
563;DHT22;266;49.514;8.294;2023-05-29T07:15:28;17.70;99.90
563;DHT22;266;49.514;8.294;2023-05-29T07:17:56;17.80;99.90
563;DHT22;266;49.514;8.294;2023-05-29T07:20:24;17.90;99.90
563;DHT22;266;49.514;8.294;2023-05-29T07:22:52;18.00;99.90
563;DHT22;266;49.514;8.294;2023-05-29T07:25:20;18.10;99.90
563;DHT22;266;49.514;8.294;2023-05-29T07:27:48;18.30;99.90
563;DHT22;266;49.514;8.294;2023-05-29T07:30:18;18.40;99.90
563;DHT22;266;49.514;8.294;2023-05-29T07:32:46;18.50;99.90
563;DHT22;266;49.514;8.294;2023-05-29T07:35:14;18.60;99.90
563;DHT22;266;49.514;8.294;2023-05-29T07:37:42;18.80;99.90
563;DHT22;266;49.514;8.294;2023-05-29T07:40:10;18.90;99.90
563;DHT22;266;49.514;8.294;2023-05-29T07:42:38;19.00;99.90
563;DHT22;266;49.514;8.294;2023-05-29T07:45:07;19.10;99.90
563;DHT22;266;49.514;8.294;2023-05-29T07:47:36;19.20;99.90
563;DHT22;266;49.514;8.294;2023-05-29T07:50:05;19.40;99.90
563;DHT22;266;49.514;8.294;2023-05-29T07:52:34;19.50;99.90
563;DHT22;266;49.514;8.294;2023-05-29T07:55:03;19.60;99.90
563;DHT22;266;49.514;8.294;2023-05-29T07:57:31;19.70;99.90
563;DHT22;266;49.514;8.294;2023-05-29T08:00:00;19.80;99.90
563;DHT22;266;49.514;8.294;2023-05-29T08:02:29;19.90;99.90
563;DHT22;266;49.514;8.294;2023-05-29T08:04:59;20.00;99.90
563;DHT22;266;49.514;8.294;2023-05-29T08:07:27;20.10;99.90
563;DHT22;266;49.514;8.294;2023-05-29T08:09:55;20.30;99.90
563;DHT22;266;49.514;8.294;2023-05-29T08:12:23;20.50;99.90
563;DHT22;266;49.514;8.294;2023-05-29T08:14:51;20.70;99.90
563;DHT22;266;49.514;8.294;2023-05-29T08:17:19;20.90;99.90
563;DHT22;266;49.514;8.294;2023-05-29T08:19:48;21.10;99.90
563;DHT22;266;49.514;8.294;2023-05-29T08:22:17;21.30;99.90
563;DHT22;266;49.514;8.294;2023-05-29T08:24:45;21.70;99.90
563;DHT22;266;49.514;8.294;2023-05-29T08:27:13;22.00;99.90
563;DHT22;266;49.514;8.294;2023-05-29T08:29:41;22.40;99.90
563;DHT22;266;49.514;8.294;2023-05-29T08:32:09;22.80;99.90
563;DHT22;266;49.514;8.294;2023-05-29T08:34:37;23.20;99.90
563;DHT22;266;49.514;8.294;2023-05-29T08:37:05;23.50;99.90
563;DHT22;266;49.514;8.294;2023-05-29T08:39:34;23.80;99.90
563;DHT22;266;49.514;8.294;2023-05-29T08:42:06;24.10;99.90
563;DHT22;266;49.514;8.294;2023-05-29T08:44:35;24.30;99.90
563;DHT22;266;49.514;8.294;2023-05-29T08:47:07;24.50;99.90
563;DHT22;266;49.514;8.294;2023-05-29T08:49:40;24.70;99.90
563;DHT22;266;49.514;8.294;2023-05-29T08:52:13;24.90;99.90
563;DHT22;266;49.514;8.294;2023-05-29T08:54:43;25.00;99.90
563;DHT22;266;49.514;8.294;2023-05-29T08:57:12;25.30;99.90
563;DHT22;266;49.514;8.294;2023-05-29T08:59:42;25.40;99.90
563;DHT22;266;49.514;8.294;2023-05-29T09:02:11;25.80;99.90
563;DHT22;266;49.514;8.294;2023-05-29T09:04:41;25.80;99.90
563;DHT22;266;49.514;8.294;2023-05-29T09:07:11;26.20;99.90
563;DHT22;266;49.514;8.294;2023-05-29T09:09:42;26.60;99.90
563;DHT22;266;49.514;8.294;2023-05-29T09:12:10;26.80;99.90
563;DHT22;266;49.514;8.294;2023-05-29T09:14:39;26.90;99.90
563;DHT22;266;49.514;8.294;2023-05-29T09:17:09;27.00;99.90
563;DHT22;266;49.514;8.294;2023-05-29T09:19:38;27.20;99.90
563;DHT22;266;49.514;8.294;2023-05-29T09:22:08;27.50;99.90
563;DHT22;266;49.514;8.294;2023-05-29T09:24:37;27.50;99.90
563;DHT22;266;49.514;8.294;2023-05-29T09:27:08;27.30;99.90
563;DHT22;266;49.514;8.294;2023-05-29T09:29:39;27.40;99.90
563;DHT22;266;49.514;8.294;2023-05-29T09:32:08;27.70;99.90
563;DHT22;266;49.514;8.294;2023-05-29T09:34:37;28.00;99.90
563;DHT22;266;49.514;8.294;2023-05-29T09:37:06;28.20;99.90
563;DHT22;266;49.514;8.294;2023-05-29T09:39:45;28.50;99.90
563;DHT22;266;49.514;8.294;2023-05-29T09:42:16;28.80;99.90
563;DHT22;266;49.514;8.294;2023-05-29T09:44:45;29.00;99.90
563;DHT22;266;49.514;8.294;2023-05-29T09:47:14;28.90;99.90
563;DHT22;266;49.514;8.294;2023-05-29T09:49:44;28.80;99.90
563;DHT22;266;49.514;8.294;2023-05-29T09:52:13;28.70;99.90
563;DHT22;266;49.514;8.294;2023-05-29T09:54:43;28.70;99.90
563;DHT22;266;49.514;8.294;2023-05-29T09:57:16;28.90;99.90
563;DHT22;266;49.514;8.294;2023-05-29T09:59:45;29.00;99.90
563;DHT22;266;49.514;8.294;2023-05-29T10:02:18;28.90;99.90
563;DHT22;266;49.514;8.294;2023-05-29T10:04:46;29.10;99.90
563;DHT22;266;49.514;8.294;2023-05-29T10:07:20;29.10;99.90
563;DHT22;266;49.514;8.294;2023-05-29T10:09:54;29.20;99.90
563;DHT22;266;49.514;8.294;2023-05-29T10:12:29;29.20;99.90
563;DHT22;266;49.514;8.294;2023-05-29T10:14:59;29.30;99.90
563;DHT22;266;49.514;8.294;2023-05-29T10:17:33;29.40;99.90
563;DHT22;266;49.514;8.294;2023-05-29T10:20:05;29.40;99.90
563;DHT22;266;49.514;8.294;2023-05-29T10:22:36;29.40;99.90
563;DHT22;266;49.514;8.294;2023-05-29T10:25:08;29.70;99.90
563;DHT22;266;49.514;8.294;2023-05-29T10:27:38;29.90;99.90
563;DHT22;266;49.514;8.294;2023-05-29T10:30:13;30.10;99.90
563;DHT22;266;49.514;8.294;2023-05-29T10:32:56;30.10;99.90
563;DHT22;266;49.514;8.294;2023-05-29T10:35:35;30.50;99.90
563;DHT22;266;49.514;8.294;2023-05-29T10:38:11;30.60;99.90
563;DHT22;266;49.514;8.294;2023-05-29T10:40:39;29.90;99.90
563;DHT22;266;49.514;8.294;2023-05-29T10:43:09;29.20;99.90
563;DHT22;266;49.514;8.294;2023-05-29T10:45:50;29.00;99.90
563;DHT22;266;49.514;8.294;2023-05-29T10:48:38;29.20;99.90
563;DHT22;266;49.514;8.294;2023-05-29T10:51:08;29.70;99.90
563;DHT22;266;49.514;8.294;2023-05-29T10:53:36;30.30;99.90
563;DHT22;266;49.514;8.294;2023-05-29T10:56:15;30.70;99.90
563;DHT22;266;49.514;8.294;2023-05-29T10:58:55;31.00;99.90
563;DHT22;266;49.514;8.294;2023-05-29T11:01:24;30.80;99.90
563;DHT22;266;49.514;8.294;2023-05-29T11:04:28;30.50;99.90
563;DHT22;266;49.514;8.294;2023-05-29T11:06:59;30.20;99.90
563;DHT22;266;49.514;8.294;2023-05-29T11:09:32;30.20;99.90
563;DHT22;266;49.514;8.294;2023-05-29T11:12:21;30.40;99.90
563;DHT22;266;49.514;8.294;2023-05-29T11:15:04;30.60;99.90
563;DHT22;266;49.514;8.294;2023-05-29T11:17:43;30.70;99.90
563;DHT22;266;49.514;8.294;2023-05-29T11:20:36;30.80;99.90
563;DHT22;266;49.514;8.294;2023-05-29T11:23:05;30.80;99.90
563;DHT22;266;49.514;8.294;2023-05-29T11:25:36;30.70;99.90
563;DHT22;266;49.514;8.294;2023-05-29T11:28:05;30.80;99.90
563;DHT22;266;49.514;8.294;2023-05-29T11:30:46;30.90;99.90
563;DHT22;266;49.514;8.294;2023-05-29T11:33:23;31.00;99.90
563;DHT22;266;49.514;8.294;2023-05-29T11:35:58;31.10;99.90
563;DHT22;266;49.514;8.294;2023-05-29T11:38:27;31.30;99.90
563;DHT22;266;49.514;8.294;2023-05-29T11:40:55;31.10;99.90
563;DHT22;266;49.514;8.294;2023-05-29T11:43:25;30.90;99.70
563;DHT22;266;49.514;8.294;2023-05-29T11:45:53;30.90;99.90
563;DHT22;266;49.514;8.294;2023-05-29T11:48:21;31.00;99.60
563;DHT22;266;49.514;8.294;2023-05-29T11:50:50;31.10;99.80
563;DHT22;266;49.514;8.294;2023-05-29T11:53:19;31.20;99.90
563;DHT22;266;49.514;8.294;2023-05-29T11:55:48;31.50;99.10
563;DHT22;266;49.514;8.294;2023-05-29T11:58:16;31.70;98.70
563;DHT22;266;49.514;8.294;2023-05-29T12:00:44;31.80;98.30
563;DHT22;266;49.514;8.294;2023-05-29T12:03:17;31.80;98.80
563;DHT22;266;49.514;8.294;2023-05-29T12:05:47;31.80;97.80
563;DHT22;266;49.514;8.294;2023-05-29T12:08:16;31.80;97.30
563;DHT22;266;49.514;8.294;2023-05-29T12:10:50;31.90;96.40
563;DHT22;266;49.514;8.294;2023-05-29T12:13:18;32.00;96.90
563;DHT22;266;49.514;8.294;2023-05-29T12:15:48;31.70;96.10
563;DHT22;266;49.514;8.294;2023-05-29T12:18:17;31.70;96.00
563;DHT22;266;49.514;8.294;2023-05-29T12:20:45;31.70;95.50
563;DHT22;266;49.514;8.294;2023-05-29T12:23:14;31.90;96.50
563;DHT22;266;49.514;8.294;2023-05-29T12:25:45;32.00;96.70
563;DHT22;266;49.514;8.294;2023-05-29T12:28:17;32.00;94.90
563;DHT22;266;49.514;8.294;2023-05-29T12:30:47;32.00;95.80
563;DHT22;266;49.514;8.294;2023-05-29T12:33:29;31.90;95.30
563;DHT22;266;49.514;8.294;2023-05-29T12:36:02;32.10;96.30
563;DHT22;266;49.514;8.294;2023-05-29T12:38:30;32.10;95.00
563;DHT22;266;49.514;8.294;2023-05-29T12:40:58;32.00;93.70
563;DHT22;266;49.514;8.294;2023-05-29T12:43:28;31.90;95.10
563;DHT22;266;49.514;8.294;2023-05-29T12:45:56;32.00;93.10
563;DHT22;266;49.514;8.294;2023-05-29T12:48:28;32.10;94.50
563;DHT22;266;49.514;8.294;2023-05-29T12:50:56;31.90;92.40
563;DHT22;266;49.514;8.294;2023-05-29T12:53:28;31.60;92.30
563;DHT22;266;49.514;8.294;2023-05-29T12:55:57;31.50;91.70
563;DHT22;266;49.514;8.294;2023-05-29T12:58:27;31.60;92.60
563;DHT22;266;49.514;8.294;2023-05-29T13:00:55;31.90;91.60
563;DHT22;266;49.514;8.294;2023-05-29T13:03:23;32.20;92.30
563;DHT22;266;49.514;8.294;2023-05-29T13:05:52;32.10;91.00
563;DHT22;266;49.514;8.294;2023-05-29T13:08:21;31.90;92.00
563;DHT22;266;49.514;8.294;2023-05-29T13:10:49;31.90;91.10
563;DHT22;266;49.514;8.294;2023-05-29T13:13:17;32.00;91.20
563;DHT22;266;49.514;8.294;2023-05-29T13:15:46;32.30;91.70
563;DHT22;266;49.514;8.294;2023-05-29T13:18:14;32.30;90.20
563;DHT22;266;49.514;8.294;2023-05-29T13:20:42;32.30;90.70
563;DHT22;266;49.514;8.294;2023-05-29T13:23:10;32.30;90.30
563;DHT22;266;49.514;8.294;2023-05-29T13:25:38;32.30;89.10
563;DHT22;266;49.514;8.294;2023-05-29T13:28:07;32.20;86.40
563;DHT22;266;49.514;8.294;2023-05-29T13:30:35;32.50;86.90
563;DHT22;266;49.514;8.294;2023-05-29T13:33:04;32.50;87.60
563;DHT22;266;49.514;8.294;2023-05-29T13:35:32;32.40;87.30
563;DHT22;266;49.514;8.294;2023-05-29T13:38:00;32.30;86.60
563;DHT22;266;49.514;8.294;2023-05-29T13:40:28;32.20;89.80
563;DHT22;266;49.514;8.294;2023-05-29T13:42:56;32.30;88.80
563;DHT22;266;49.514;8.294;2023-05-29T13:45:24;32.30;87.40
563;DHT22;266;49.514;8.294;2023-05-29T13:47:54;32.00;84.20
563;DHT22;266;49.514;8.294;2023-05-29T13:50:24;31.90;89.50
563;DHT22;266;49.514;8.294;2023-05-29T13:52:52;31.70;83.80
563;DHT22;266;49.514;8.294;2023-05-29T13:55:20;31.90;88.30
563;DHT22;266;49.514;8.294;2023-05-29T13:57:48;31.80;89.50
563;DHT22;266;49.514;8.294;2023-05-29T14:00:16;31.50;86.80
563;DHT22;266;49.514;8.294;2023-05-29T14:02:44;31.10;87.20
563;DHT22;266;49.514;8.294;2023-05-29T14:05:12;31.00;88.10
563;DHT22;266;49.514;8.294;2023-05-29T14:07:42;31.20;87.40
563;DHT22;266;49.514;8.294;2023-05-29T14:10:10;31.30;84.80
563;DHT22;266;49.514;8.294;2023-05-29T14:12:39;31.60;87.70
563;DHT22;266;49.514;8.294;2023-05-29T14:15:09;31.70;85.10
563;DHT22;266;49.514;8.294;2023-05-29T14:17:37;31.60;83.90
563;DHT22;266;49.514;8.294;2023-05-29T14:20:05;31.50;80.70
563;DHT22;266;49.514;8.294;2023-05-29T14:22:35;31.40;81.00
563;DHT22;266;49.514;8.294;2023-05-29T14:25:06;31.40;82.70
563;DHT22;266;49.514;8.294;2023-05-29T14:27:34;31.50;85.10
563;DHT22;266;49.514;8.294;2023-05-29T14:30:03;31.60;80.50
563;DHT22;266;49.514;8.294;2023-05-29T14:32:32;31.50;80.80
563;DHT22;266;49.514;8.294;2023-05-29T14:35:00;31.60;82.00
563;DHT22;266;49.514;8.294;2023-05-29T14:37:28;31.60;78.90
563;DHT22;266;49.514;8.294;2023-05-29T14:39:56;31.70;74.70
563;DHT22;266;49.514;8.294;2023-05-29T14:42:25;31.80;77.50
563;DHT22;266;49.514;8.294;2023-05-29T14:44:53;31.80;77.20
563;DHT22;266;49.514;8.294;2023-05-29T14:47:21;31.60;75.50
563;DHT22;266;49.514;8.294;2023-05-29T14:49:49;31.40;77.30
563;DHT22;266;49.514;8.294;2023-05-29T14:52:17;31.30;76.30
563;DHT22;266;49.514;8.294;2023-05-29T14:54:45;31.30;77.20
563;DHT22;266;49.514;8.294;2023-05-29T14:57:13;31.10;76.60
563;DHT22;266;49.514;8.294;2023-05-29T14:59:43;31.10;75.00
563;DHT22;266;49.514;8.294;2023-05-29T15:02:11;31.10;73.70
563;DHT22;266;49.514;8.294;2023-05-29T15:04:39;31.00;71.30
563;DHT22;266;49.514;8.294;2023-05-29T15:07:07;30.90;71.10
563;DHT22;266;49.514;8.294;2023-05-29T15:09:35;31.10;75.20
563;DHT22;266;49.514;8.294;2023-05-29T15:12:04;31.00;73.20
563;DHT22;266;49.514;8.294;2023-05-29T15:14:34;30.90;70.10
563;DHT22;266;49.514;8.294;2023-05-29T15:17:04;31.00;70.70
563;DHT22;266;49.514;8.294;2023-05-29T15:19:32;31.10;71.50
563;DHT22;266;49.514;8.294;2023-05-29T15:22:00;31.20;76.80
563;DHT22;266;49.514;8.294;2023-05-29T15:24:28;31.00;79.20
563;DHT22;266;49.514;8.294;2023-05-29T15:26:56;30.90;71.20
563;DHT22;266;49.514;8.294;2023-05-29T15:29:26;30.80;71.50
563;DHT22;266;49.514;8.294;2023-05-29T15:31:54;30.60;69.90
563;DHT22;266;49.514;8.294;2023-05-29T15:34:23;30.30;71.90
563;DHT22;266;49.514;8.294;2023-05-29T15:36:51;30.20;69.70
563;DHT22;266;49.514;8.294;2023-05-29T15:39:19;30.10;69.60
563;DHT22;266;49.514;8.294;2023-05-29T15:41:47;29.90;72.20
563;DHT22;266;49.514;8.294;2023-05-29T15:44:15;29.80;74.70
563;DHT22;266;49.514;8.294;2023-05-29T15:46:43;29.60;73.40
563;DHT22;266;49.514;8.294;2023-05-29T15:49:11;29.40;75.50
563;DHT22;266;49.514;8.294;2023-05-29T15:51:40;29.50;77.00
563;DHT22;266;49.514;8.294;2023-05-29T15:54:09;29.50;77.40
563;DHT22;266;49.514;8.294;2023-05-29T15:56:38;29.50;76.80
563;DHT22;266;49.514;8.294;2023-05-29T15:59:05;29.30;75.80
563;DHT22;266;49.514;8.294;2023-05-29T16:01:34;29.10;75.50
563;DHT22;266;49.514;8.294;2023-05-29T16:04:02;29.00;81.60
563;DHT22;266;49.514;8.294;2023-05-29T16:06:30;28.90;76.40
563;DHT22;266;49.514;8.294;2023-05-29T16:09:00;28.90;77.60
563;DHT22;266;49.514;8.294;2023-05-29T16:11:28;28.90;77.20
563;DHT22;266;49.514;8.294;2023-05-29T16:13:56;28.70;76.70
563;DHT22;266;49.514;8.294;2023-05-29T16:16:24;28.40;75.90
563;DHT22;266;49.514;8.294;2023-05-29T16:18:52;28.30;77.20
563;DHT22;266;49.514;8.294;2023-05-29T16:21:21;28.20;79.10
563;DHT22;266;49.514;8.294;2023-05-29T16:23:49;28.20;80.60
563;DHT22;266;49.514;8.294;2023-05-29T16:26:25;28.10;78.90
563;DHT22;266;49.514;8.294;2023-05-29T16:28:54;27.90;78.50
563;DHT22;266;49.514;8.294;2023-05-29T16:31:22;27.80;80.30
563;DHT22;266;49.514;8.294;2023-05-29T16:33:52;27.70;79.40
563;DHT22;266;49.514;8.294;2023-05-29T16:36:20;27.60;79.70
563;DHT22;266;49.514;8.294;2023-05-29T16:38:48;27.50;80.70
563;DHT22;266;49.514;8.294;2023-05-29T16:41:17;27.30;80.00
563;DHT22;266;49.514;8.294;2023-05-29T16:43:47;27.20;80.10
563;DHT22;266;49.514;8.294;2023-05-29T16:46:15;27.20;81.30
563;DHT22;266;49.514;8.294;2023-05-29T16:48:43;27.00;82.10
563;DHT22;266;49.514;8.294;2023-05-29T16:51:11;26.90;82.80